createdAt,value
2017-11-29T08:13:53.059Z,6.45
2017-11-29T08:16:26.776Z,6.53
2017-11-29T08:19:00.637Z,5.97
2017-11-29T08:21:34.309Z,5.18
2017-11-29T08:24:08.990Z,9.65
2017-11-29T08:26:43.443Z,6.45
2017-11-29T08:29:18.031Z,7.05
2017-11-29T08:31:51.771Z,6.55
2017-11-29T08:34:26.197Z,7.65
2017-11-29T08:37:00.936Z,10.05
2017-11-29T08:39:35.457Z,6.75
2017-11-29T08:42:09.213Z,10.70
2017-11-29T08:44:43.149Z,5.85
2017-11-29T08:47:16.870Z,6.57
2017-11-29T08:49:54.778Z,5.43
2017-11-29T08:52:29.510Z,5.45
2017-11-29T08:55:03.997Z,6.60
2017-11-29T08:57:39.767Z,6.95
2017-11-29T09:00:14.622Z,9.48
2017-11-29T09:02:48.366Z,4.85
2017-11-29T09:05:22.216Z,7.30
2017-11-29T09:07:56.711Z,5.00
2017-11-29T09:10:31.257Z,9.82
2017-11-29T09:13:06.478Z,5.78
2017-11-29T09:15:40.560Z,4.10
2017-11-29T09:18:15.012Z,3.90
2017-11-29T09:20:48.790Z,6.30
2017-11-29T09:23:22.467Z,7.50
2017-11-29T09:25:58.279Z,3.50
2017-11-29T09:28:31.946Z,5.20
2017-11-29T09:31:05.758Z,6.10
2017-11-29T09:33:39.460Z,7.45
2017-11-29T09:36:13.495Z,11.27
2017-11-29T09:38:47.201Z,4.65
2017-11-29T09:41:21.174Z,5.47
2017-11-29T09:43:55.017Z,5.22
2017-11-29T09:46:28.725Z,6.05
2017-11-29T09:49:03.125Z,4.40
2017-11-29T09:51:36.935Z,12.43
2017-11-29T09:54:10.726Z,6.93
2017-11-29T09:56:44.565Z,5.65
2017-11-29T09:59:18.319Z,10.43
2017-11-29T10:01:52.123Z,5.05
2017-11-29T10:04:25.855Z,5.62
2017-11-29T10:06:59.682Z,6.55
2017-11-29T10:09:34.207Z,9.38
2017-11-29T10:12:08.898Z,9.30
2017-11-29T10:14:42.535Z,3.62
2017-11-29T10:17:21.010Z,7.30
2017-11-29T10:19:55.764Z,7.70
2017-11-29T10:22:29.931Z,6.43
2017-11-29T10:25:03.712Z,5.95
2017-11-29T10:27:37.427Z,4.75
2017-11-29T10:30:11.254Z,6.00
2017-11-29T10:32:45.084Z,5.20
2017-11-29T10:35:18.807Z,8.15
2017-11-29T10:37:52.588Z,7.80
2017-11-29T10:40:26.398Z,12.63
2017-11-29T10:43:01.087Z,8.60
2017-11-29T10:45:34.794Z,4.85
2017-11-29T10:48:08.582Z,5.60
2017-11-29T10:50:42.384Z,11.93
2017-11-29T10:53:16.924Z,3.78
2017-11-29T10:55:51.405Z,7.47
2017-11-29T10:58:25.966Z,6.72
2017-11-29T11:01:02.713Z,7.62
2017-11-29T11:03:37.262Z,4.55
2017-11-29T11:06:10.943Z,5.40
2017-11-29T11:08:44.942Z,7.85
2017-11-29T11:11:18.804Z,7.72
2017-11-29T11:13:52.553Z,5.70
2017-11-29T11:16:26.205Z,6.80
2017-11-29T11:18:59.903Z,16.52
2017-11-29T11:21:33.610Z,6.28
2017-11-29T11:24:07.411Z,5.93
2017-11-29T11:26:41.968Z,14.38
2017-11-29T11:29:15.826Z,4.25
2017-11-29T11:31:49.880Z,4.30
2017-11-29T11:34:24.194Z,3.60
2017-11-29T11:36:57.923Z,5.05
2017-11-29T11:39:34.126Z,5.45
2017-11-29T11:42:08.860Z,5.43
2017-11-29T11:44:42.592Z,3.95
2017-11-29T11:47:16.265Z,3.87
2017-11-29T11:49:50.104Z,3.62
2017-11-29T11:52:24.570Z,9.55
2017-11-29T11:54:59.329Z,4.28
2017-11-29T11:57:33.153Z,6.85
2017-11-29T12:00:06.989Z,4.70
2017-11-29T12:02:40.671Z,5.25
2017-11-29T12:05:14.448Z,4.25
2017-11-29T12:07:49.249Z,6.15
2017-11-29T12:10:23.008Z,7.70
2017-11-29T12:12:56.893Z,3.47
2017-11-29T12:15:30.546Z,3.78
2017-11-29T12:18:04.297Z,3.17
2017-11-29T12:20:38.560Z,3.50
2017-11-29T12:23:12.322Z,4.28
2017-11-29T12:25:46.214Z,3.85
2017-11-29T12:28:21.754Z,3.60
2017-11-29T12:30:55.551Z,4.15
2017-11-29T12:33:31.576Z,3.67
2017-11-29T12:36:05.453Z,6.62
2017-11-29T12:38:39.157Z,5.00
2017-11-29T12:41:12.955Z,6.00
2017-11-29T12:43:48.962Z,4.07
2017-11-29T12:46:22.630Z,8.93
2017-11-29T12:49:08.398Z,7.25
2017-11-29T12:51:42.928Z,5.45
2017-11-29T12:54:17.238Z,3.97
2017-11-29T12:56:51.166Z,8.02
2017-11-29T12:59:25.299Z,7.12
2017-11-29T13:01:59.050Z,7.65
2017-11-29T13:04:32.848Z,6.25
2017-11-29T13:07:06.614Z,5.72
2017-11-29T13:09:40.416Z,6.80
2017-11-29T13:12:14.388Z,4.93
2017-11-29T13:14:48.952Z,10.68
2017-11-29T13:17:23.291Z,6.28
2017-11-29T13:19:57.742Z,6.07
2017-11-29T13:22:31.418Z,7.60
2017-11-29T13:25:06.014Z,5.95
2017-11-29T13:27:40.915Z,4.47
2017-11-29T13:30:14.771Z,5.85
2017-11-29T13:32:51.302Z,17.10
2017-11-29T13:35:25.891Z,30.98
2017-11-29T13:37:59.679Z,8.23
2017-11-29T13:40:33.462Z,6.87
2017-11-29T13:43:07.270Z,7.20
2017-11-29T13:45:41.128Z,7.57
2017-11-29T13:48:14.868Z,7.60
2017-11-29T13:50:48.461Z,7.95
2017-11-29T13:53:22.583Z,6.30
2017-11-29T13:55:56.242Z,6.30
2017-11-29T13:58:30.038Z,7.28
2017-11-29T14:01:03.912Z,8.25
2017-11-29T14:03:37.706Z,8.95
2017-11-29T14:06:11.511Z,9.43
2017-11-29T14:08:45.984Z,9.63
2017-11-29T14:11:19.840Z,8.02
2017-11-29T14:13:53.679Z,8.05
2017-11-29T14:16:28.504Z,6.40
2017-11-29T14:19:02.269Z,8.00
2017-11-29T14:21:36.083Z,6.37
2017-11-29T14:24:10.586Z,7.03
2017-11-29T14:26:45.160Z,14.23
2017-11-29T14:29:20.213Z,7.60
2017-11-29T14:31:54.077Z,9.25
2017-11-29T14:34:27.814Z,9.90
2017-11-29T14:37:01.987Z,7.65
2017-11-29T14:39:35.814Z,8.73
2017-11-29T14:42:09.542Z,10.25
2017-11-29T14:44:43.978Z,10.70
2017-11-29T14:47:18.629Z,11.63
2017-11-29T14:49:53.351Z,8.10
2017-11-29T14:52:27.156Z,11.75
2017-11-29T14:55:00.925Z,10.90
2017-11-29T14:57:35.496Z,10.85
2017-11-29T15:00:09.302Z,8.68
2017-11-29T15:02:45.059Z,8.40
2017-11-29T15:05:19.899Z,6.90
2017-11-29T15:07:53.590Z,9.10
2017-11-29T15:10:27.199Z,9.60
2017-11-29T15:13:01.070Z,10.15
2017-11-29T15:15:34.805Z,11.60
2017-11-29T15:18:09.327Z,9.32
2017-11-29T15:20:43.042Z,10.13
2017-11-29T15:23:16.882Z,11.38
2017-11-29T15:25:50.910Z,11.88
2017-11-29T15:28:24.705Z,10.40
2017-11-29T15:30:59.294Z,9.38
2017-11-29T15:33:33.097Z,11.27
2017-11-29T15:36:06.927Z,10.45
2017-11-29T15:38:40.734Z,9.50
2017-11-29T15:41:14.501Z,10.65
2017-11-29T15:43:48.279Z,10.27
2017-11-29T15:46:22.049Z,10.38
2017-11-29T15:48:55.826Z,9.57
2017-11-29T15:51:30.469Z,7.32
2017-11-29T15:54:05.420Z,10.13
2017-11-29T15:56:39.279Z,8.63
2017-11-29T15:59:13.794Z,8.48
2017-11-29T16:01:47.800Z,6.62
2017-11-29T16:04:22.219Z,11.12
2017-11-29T16:06:56.003Z,8.52
2017-11-29T16:09:30.458Z,10.55
2017-11-29T16:12:05.350Z,8.98
2017-11-29T16:14:40.421Z,7.93
2017-11-29T16:17:15.413Z,9.10
2017-11-29T16:19:51.124Z,10.93
2017-11-29T16:22:26.546Z,6.85
2017-11-29T16:25:01.147Z,11.63
2017-11-29T16:27:36.821Z,10.55
2017-11-29T16:30:11.757Z,9.52
2017-11-29T16:32:51.537Z,8.23
2017-11-29T16:35:26.501Z,9.18
2017-11-29T16:38:01.122Z,9.63
2017-11-29T16:40:35.509Z,9.45
2017-11-29T16:43:10.495Z,11.05
2017-11-29T16:45:45.283Z,10.68
2017-11-29T16:48:20.180Z,12.25
2017-11-29T16:50:54.992Z,12.15
2017-11-29T16:53:29.828Z,13.57
2017-11-29T16:56:04.645Z,11.23
2017-11-29T16:58:40.512Z,12.37
2017-11-29T17:01:16.294Z,11.18
2017-11-29T17:03:52.184Z,10.30
2017-11-29T17:06:27.105Z,11.35
2017-11-29T17:09:02.976Z,12.98
2017-11-29T17:11:37.952Z,10.32
2017-11-29T17:14:12.702Z,16.83
2017-11-29T17:16:48.471Z,11.68
2017-11-29T17:19:23.348Z,10.45
2017-11-29T17:21:57.976Z,9.40
2017-11-29T17:24:32.551Z,12.48
2017-11-29T17:27:07.368Z,10.55
2017-11-29T17:29:53.644Z,12.77
2017-11-29T17:32:28.920Z,11.20
2017-11-29T17:35:03.568Z,10.38
2017-11-29T17:37:38.078Z,13.70
2017-11-29T17:40:12.583Z,17.75
2017-11-29T17:42:48.250Z,17.25
2017-11-29T17:45:26.536Z,16.30
2017-11-29T17:48:01.370Z,18.42
2017-11-29T17:50:36.246Z,14.35
2017-11-29T17:53:11.227Z,17.23
2017-11-29T17:55:46.093Z,13.80
2017-11-29T17:58:21.674Z,16.25
2017-11-29T18:00:57.166Z,17.77
2017-11-29T18:03:31.876Z,11.80
2017-11-29T18:06:06.699Z,14.32
2017-11-29T18:08:41.444Z,11.93
2017-11-29T18:11:16.281Z,12.43
2017-11-29T18:13:51.216Z,13.85
2017-11-29T18:16:26.645Z,12.20
2017-11-29T18:19:01.462Z,12.60
2017-11-29T18:21:36.208Z,10.25
2017-11-29T18:24:13.090Z,12.23
2017-11-29T18:26:47.909Z,9.02
2017-11-29T18:29:24.091Z,13.07
2017-11-29T18:31:59.131Z,16.30
2017-11-29T18:34:34.126Z,15.15
2017-11-29T18:37:08.877Z,16.55
2017-11-29T18:39:43.645Z,11.32
2017-11-29T18:42:18.447Z,14.10
2017-11-29T18:44:53.336Z,15.95
2017-11-29T18:47:27.797Z,13.00
2017-11-29T18:50:02.719Z,12.75
2017-11-29T18:52:37.126Z,11.65
2017-11-29T18:55:11.917Z,13.98
2017-11-29T18:57:46.733Z,17.12
2017-11-29T19:00:21.260Z,10.60
2017-11-29T19:02:56.151Z,11.48
2017-11-29T19:05:30.938Z,11.52
2017-11-29T19:08:07.377Z,15.68
2017-11-29T19:10:42.335Z,11.73
2017-11-29T19:13:18.170Z,16.73
2017-11-29T19:15:52.691Z,13.30
2017-11-29T19:18:27.310Z,17.75
2017-11-29T19:21:02.362Z,17.45
2017-11-29T19:23:37.142Z,14.07
2017-11-29T19:26:12.173Z,16.10
2017-11-29T19:28:47.915Z,15.02
2017-11-29T19:31:22.750Z,14.38
2017-11-29T19:33:57.518Z,19.12
2017-11-29T19:36:32.385Z,15.52
2017-11-29T19:39:07.342Z,16.77
2017-11-29T19:41:42.154Z,16.37
2017-11-29T19:44:18.373Z,13.55
2017-11-29T19:46:53.293Z,21.77
2017-11-29T19:49:28.269Z,13.52
2017-11-29T19:52:03.113Z,16.67
2017-11-29T19:54:37.895Z,16.30
2017-11-29T19:57:12.894Z,14.02
2017-11-29T19:59:47.800Z,15.00
2017-11-29T20:02:23.148Z,14.25
2017-11-29T20:04:58.697Z,14.23
2017-11-29T20:07:33.674Z,15.32
2017-11-29T20:10:08.622Z,14.82
2017-11-29T20:12:44.073Z,14.60
2017-11-29T20:15:18.275Z,16.65
2017-11-29T20:17:53.342Z,37.10
2017-11-29T20:20:27.815Z,15.40
2017-11-29T20:23:02.896Z,14.85
2017-11-29T20:25:38.893Z,15.32
2017-11-29T20:28:13.796Z,12.40
2017-11-29T20:30:48.662Z,13.60
2017-11-29T20:33:23.510Z,15.13
2017-11-29T20:35:59.242Z,14.15
2017-11-29T20:38:34.049Z,16.73
2017-11-29T20:41:09.618Z,14.93
2017-11-29T20:43:45.686Z,15.40
2017-11-29T20:46:20.714Z,12.65
2017-11-29T20:48:55.566Z,21.17
2017-11-29T20:51:30.404Z,15.95
2017-11-29T20:54:04.555Z,17.80
2017-11-29T20:56:39.464Z,14.27
2017-11-29T20:59:14.343Z,13.80
2017-11-29T21:01:49.695Z,13.05
2017-11-29T21:04:24.678Z,14.02
2017-11-29T21:06:59.783Z,11.55
2017-11-29T21:09:34.802Z,13.70
2017-11-29T21:12:09.580Z,13.00
2017-11-29T21:14:44.413Z,12.55
2017-11-29T21:17:19.435Z,27.48
2017-11-29T21:19:54.445Z,16.00
2017-11-29T21:22:30.022Z,14.15
2017-11-29T21:25:05.237Z,16.45
2017-11-29T21:27:40.211Z,17.15
2017-11-29T21:30:15.814Z,13.62
2017-11-29T21:32:51.410Z,16.62
2017-11-29T21:35:26.320Z,13.43
2017-11-29T21:38:01.069Z,13.10
2017-11-29T21:40:36.902Z,11.50
2017-11-29T21:43:11.725Z,10.95
2017-11-29T21:45:46.868Z,13.13
2017-11-29T21:48:22.649Z,12.50
2017-11-29T21:50:57.548Z,14.65
2017-11-29T21:53:32.369Z,17.37
2017-11-29T21:56:07.158Z,10.60
2017-11-29T21:58:42.190Z,8.82
2017-11-29T22:01:17.076Z,11.40
2017-11-29T22:03:53.432Z,13.75
2017-11-29T22:06:28.267Z,11.25
2017-11-29T22:09:03.266Z,15.15
2017-11-29T22:11:38.294Z,16.83
2017-11-29T22:14:12.926Z,13.40
2017-11-29T22:16:47.935Z,11.93
2017-11-29T22:19:22.678Z,10.50
2017-11-29T22:21:57.352Z,12.98
2017-11-29T22:24:33.187Z,16.98
2017-11-29T22:27:07.646Z,12.05
2017-11-29T22:29:42.656Z,12.27
2017-11-29T22:32:17.490Z,13.32
2017-11-29T22:34:52.264Z,13.77
2017-11-29T22:37:27.088Z,12.55
2017-11-29T22:40:01.881Z,11.52
2017-11-29T22:42:37.594Z,13.90
2017-11-29T22:45:12.430Z,13.45
2017-11-29T22:47:47.276Z,11.48
2017-11-29T22:50:22.381Z,10.45
2017-11-29T22:52:57.145Z,11.70
2017-11-29T22:55:31.938Z,17.62
2017-11-29T22:58:06.690Z,12.48
2017-11-29T23:00:41.156Z,11.57
2017-11-29T23:03:15.836Z,8.85
2017-11-29T23:05:50.698Z,12.27
2017-11-29T23:08:25.522Z,11.07
2017-11-29T23:11:00.340Z,12.02
2017-11-29T23:13:35.903Z,13.15
2017-11-29T23:16:10.641Z,11.63
2017-11-29T23:18:45.366Z,15.27
2017-11-29T23:21:20.018Z,15.85
2017-11-29T23:23:55.451Z,13.73
2017-11-29T23:26:30.120Z,13.38
2017-11-29T23:29:04.941Z,15.45
2017-11-29T23:31:40.750Z,13.62
2017-11-29T23:34:15.680Z,11.75
2017-11-29T23:36:51.225Z,14.98
2017-11-29T23:39:26.046Z,14.45
2017-11-29T23:42:02.184Z,18.65
2017-11-29T23:44:37.111Z,14.57
2017-11-29T23:47:11.974Z,19.50
2017-11-29T23:49:47.043Z,17.70
2017-11-29T23:52:21.842Z,15.13
2017-11-29T23:54:56.636Z,16.50
2017-11-29T23:57:32.387Z,17.45
